Terminal Aerodrome Forecast
Issued by NWS Lake Charles, LA

Home | Current Version | Previous Version | Text Only | Print | Product List | Glossary On
Versions: 1 2 3 4 5 6 7 8 9 10 11 12 13 14 15 16 17 18
000
FTUS44 KLCH 031139
TAFLCH
TAF
KLCH 031139Z 0312/0412 08005KT 4SM BR VCSH BKN002
     FM031300 08005KT 5SM BR VCSH BKN007
     FM031400 08006KT P6SM VCSH BKN015
     FM031600 12007KT P6SM VCTS SCT035CB BKN050
      TEMPO 0316/0320 2SM TSRA BKN025CB
     FM040000 VRB03KT P6SM SCT025=

USA.gov is the U.S. government's official web portal to all federal, state and local government web resources and services.